Fayetteville, NC

11:56 PM EST on December 28, 2014 (GMT -0500)
Fayetteville Regional-Grannis | Change Station
CLOSE
Current Station
Airport
Location: Fayetteville,
Elevation: 190 ft
Nearby Weather Stations

Elev 190 ft 34.99 °N, 78.88 °W | Updated 31 minutes ago

Overcast
Overcast
59 °F
Feels Like 59 °F
N
0
Wind Variable Wind from North

Today
High -- | Low -- °F
--% Chance of Precip.
Yesterday
High -- | Low -- °F
Precip. -- in
7:22 AM 5:11 PM
First Quarter, 55% visible
Pressure 30.07 in
Visibility 6.0 miles
Clouds Few 600 ft
Mostly Cloudy 1700 ft
Overcast 2400 ft
Dew Point 58 °F
Humidity 96%
Rainfall 0.04 in
Snow Depth Not available.
UV 0 out of 12
Pollen .20 out of 12
Air Quality Not available.
Flu Activity Not available.
SPECI KFAY 290425Z AUTO 00000KT 6SM BR FEW006 BKN017 OVC024 15/14 A3007 RMK AO2 T01500144

More Conditions Fewer Conditions

Pressure 30.07 in
Visibility 6.0 miles
Clouds Few 600 ft
Mostly Cloudy 1700 ft
Overcast 2400 ft
Dew Point 58 °F
Humidity 96%
Rainfall 0.04 in
Snow Depth Not available.
UV 0 out of 12
Pollen .20 out of 12
Air Quality Not available.
Flu Activity Not available.
SPECI KFAY 290425Z AUTO 00000KT 6SM BR FEW006 BKN017 OVC024 15/14 A3007 RMK AO2 T01500144

More Conditions Fewer Conditions

10-Day Weather Forecast

Almanac

Astronomy

Dec. 28, 2014 Rise Set
Actual Time
Civil Twilight
Nautical Twilight
Astronomical Twilight
Moon
Length of Visible Light
Length of Day
Tomorrow will be .
, % of the Moon is Illuminated

Today's Extremes

State Highs State Lows

Community

WunderPhotos

Upload Photos

1,781,530 photos uploaded!

WunderBlogs® & News

Nearby

Air Quality

  Air Quality AQ Index Pollutant
Not available.

Snow Depth

Station Depth Elevation

Earthquake Activity

City Distance Mag. Time & Date
Minimum magnitude displayed is 2.5.

Coastal Water Temperatures

Place Temperature

Nearby Weather Stations